Waterford, Canada
Current Conditions -  °F | °C
As of 6:00 AM on Friday 19 Dec 2014 (Local Time) from CYHM Reporting Station
Overcast Overcast  
Wind Chill: 14°   Ceiling: 1500
Heat Index: 23°   Visibility: 15mi
Dew Point: 18°   Wind: 8mph
Humidity: 80%   Direction: 330°NNW
Pressure: 30.14"   Gusts: NA
Location:  42.93°N, 80.28°W
Report Text: CYHM 191100Z 33007KT 15SM OVC015 M05/M08 A3014 RMK SC8 SLP218
Loading
Personal Weather Stations






























Interactive Weather Map New forecast layout! Learn more

10-Day Weather Forecast

Advertisements
Track Severe Weather on mobile